sensor_id;sensor_type;location;lat;lon;timestamp;temperature;humidity
30097;DHT22;16915;51.466;3.610;2023-03-14T00:00:35;10.40;99.90
30097;DHT22;16915;51.466;3.610;2023-03-14T00:03:00;10.30;99.90
30097;DHT22;16915;51.466;3.610;2023-03-14T00:05:26;10.30;99.90
30097;DHT22;16915;51.466;3.610;2023-03-14T00:07:51;10.20;99.90
30097;DHT22;16915;51.466;3.610;2023-03-14T00:10:17;10.20;99.90
30097;DHT22;16915;51.466;3.610;2023-03-14T00:12:43;10.30;99.90
30097;DHT22;16915;51.466;3.610;2023-03-14T00:15:10;10.20;99.90
30097;DHT22;16915;51.466;3.610;2023-03-14T00:17:36;10.20;99.90
30097;DHT22;16915;51.466;3.610;2023-03-14T00:20:04;10.10;99.90
30097;DHT22;16915;51.466;3.610;2023-03-14T00:22:34;10.10;99.90
30097;DHT22;16915;51.466;3.610;2023-03-14T00:25:00;10.10;99.90
30097;DHT22;16915;51.466;3.610;2023-03-14T00:27:26;10.10;99.90
30097;DHT22;16915;51.466;3.610;2023-03-14T00:29:51;10.00;99.90
30097;DHT22;16915;51.466;3.610;2023-03-14T00:32:17;9.90;99.90
30097;DHT22;16915;51.466;3.610;2023-03-14T00:34:43;9.90;99.90
30097;DHT22;16915;51.466;3.610;2023-03-14T00:37:08;9.80;99.90
30097;DHT22;16915;51.466;3.610;2023-03-14T00:39:34;9.80;99.90
30097;DHT22;16915;51.466;3.610;2023-03-14T00:41:59;9.80;99.90
30097;DHT22;16915;51.466;3.610;2023-03-14T00:44:25;9.90;99.90
30097;DHT22;16915;51.466;3.610;2023-03-14T00:46:50;9.90;99.90
30097;DHT22;16915;51.466;3.610;2023-03-14T00:49:16;9.90;99.90
30097;DHT22;16915;51.466;3.610;2023-03-14T00:51:42;9.90;99.90
30097;DHT22;16915;51.466;3.610;2023-03-14T00:54:07;10.00;99.90
30097;DHT22;16915;51.466;3.610;2023-03-14T00:56:33;10.00;99.90
30097;DHT22;16915;51.466;3.610;2023-03-14T00:58:58;10.00;99.90
30097;DHT22;16915;51.466;3.610;2023-03-14T01:01:24;10.00;99.90
30097;DHT22;16915;51.466;3.610;2023-03-14T01:03:54;10.00;99.90
30097;DHT22;16915;51.466;3.610;2023-03-14T01:06:26;10.00;99.90
30097;DHT22;16915;51.466;3.610;2023-03-14T01:08:52;10.00;99.90
30097;DHT22;16915;51.466;3.610;2023-03-14T01:11:25;10.00;99.90
30097;DHT22;16915;51.466;3.610;2023-03-14T01:13:51;10.00;99.90
30097;DHT22;16915;51.466;3.610;2023-03-14T01:16:18;10.00;99.90
30097;DHT22;16915;51.466;3.610;2023-03-14T01:18:45;10.00;99.90
30097;DHT22;16915;51.466;3.610;2023-03-14T01:21:17;10.00;99.90
30097;DHT22;16915;51.466;3.610;2023-03-14T01:23:44;10.00;99.90
30097;DHT22;16915;51.466;3.610;2023-03-14T01:26:16;10.00;99.90
30097;DHT22;16915;51.466;3.610;2023-03-14T01:28:44;10.00;99.90
30097;DHT22;16915;51.466;3.610;2023-03-14T01:31:10;10.00;99.90
30097;DHT22;16915;51.466;3.610;2023-03-14T01:33:36;10.00;99.90
30097;DHT22;16915;51.466;3.610;2023-03-14T01:36:03;10.00;99.90
30097;DHT22;16915;51.466;3.610;2023-03-14T01:38:30;10.00;99.90
30097;DHT22;16915;51.466;3.610;2023-03-14T01:40:56;10.00;99.90
30097;DHT22;16915;51.466;3.610;2023-03-14T01:43:21;10.10;99.90
30097;DHT22;16915;51.466;3.610;2023-03-14T01:46:19;10.00;99.90
30097;DHT22;16915;51.466;3.610;2023-03-14T01:49:01;10.00;99.90
30097;DHT22;16915;51.466;3.610;2023-03-14T01:57:11;9.90;99.90
30097;DHT22;16915;51.466;3.610;2023-03-14T01:59:40;9.90;99.90
30097;DHT22;16915;51.466;3.610;2023-03-14T02:02:09;9.90;99.90
30097;DHT22;16915;51.466;3.610;2023-03-14T02:04:37;9.90;99.90
30097;DHT22;16915;51.466;3.610;2023-03-14T02:07:17;9.90;99.90
30097;DHT22;16915;51.466;3.610;2023-03-14T02:09:44;10.00;99.90
30097;DHT22;16915;51.466;3.610;2023-03-14T02:12:11;10.00;99.90
30097;DHT22;16915;51.466;3.610;2023-03-14T02:14:37;10.00;99.90
30097;DHT22;16915;51.466;3.610;2023-03-14T02:17:05;10.00;99.90
30097;DHT22;16915;51.466;3.610;2023-03-14T02:19:39;10.00;99.90
30097;DHT22;16915;51.466;3.610;2023-03-14T02:22:10;10.00;99.90
30097;DHT22;16915;51.466;3.610;2023-03-14T02:27:26;10.00;99.90
30097;DHT22;16915;51.466;3.610;2023-03-14T02:29:58;10.00;99.90
30097;DHT22;16915;51.466;3.610;2023-03-14T02:32:26;10.00;99.90
30097;DHT22;16915;51.466;3.610;2023-03-14T02:35:02;10.00;99.90
30097;DHT22;16915;51.466;3.610;2023-03-14T02:38:00;10.00;99.90
30097;DHT22;16915;51.466;3.610;2023-03-14T02:40:26;10.00;99.90
30097;DHT22;16915;51.466;3.610;2023-03-14T02:42:52;10.00;99.90
30097;DHT22;16915;51.466;3.610;2023-03-14T02:47:46;9.90;99.90
30097;DHT22;16915;51.466;3.610;2023-03-14T02:50:21;9.90;99.90
30097;DHT22;16915;51.466;3.610;2023-03-14T02:52:47;9.90;99.90
30097;DHT22;16915;51.466;3.610;2023-03-14T02:55:12;9.80;99.90
30097;DHT22;16915;51.466;3.610;2023-03-14T02:57:38;9.80;99.90
30097;DHT22;16915;51.466;3.610;2023-03-14T03:00:04;9.80;99.90
30097;DHT22;16915;51.466;3.610;2023-03-14T03:02:30;9.70;99.90
30097;DHT22;16915;51.466;3.610;2023-03-14T03:04:56;9.70;99.90
30097;DHT22;16915;51.466;3.610;2023-03-14T03:07:22;9.80;99.90
30097;DHT22;16915;51.466;3.610;2023-03-14T03:09:47;9.90;99.90
30097;DHT22;16915;51.466;3.610;2023-03-14T03:12:13;9.90;99.90
30097;DHT22;16915;51.466;3.610;2023-03-14T03:14:38;9.90;99.90
30097;DHT22;16915;51.466;3.610;2023-03-14T03:17:05;10.00;99.90
30097;DHT22;16915;51.466;3.610;2023-03-14T03:19:31;10.00;99.90
30097;DHT22;16915;51.466;3.610;2023-03-14T03:21:57;10.00;99.90
30097;DHT22;16915;51.466;3.610;2023-03-14T03:24:23;10.00;99.90
30097;DHT22;16915;51.466;3.610;2023-03-14T03:26:49;10.00;99.90
30097;DHT22;16915;51.466;3.610;2023-03-14T03:29:14;10.00;99.90
30097;DHT22;16915;51.466;3.610;2023-03-14T03:31:40;10.10;99.90
30097;DHT22;16915;51.466;3.610;2023-03-14T03:34:05;10.10;99.90
30097;DHT22;16915;51.466;3.610;2023-03-14T03:36:31;10.10;99.90
30097;DHT22;16915;51.466;3.610;2023-03-14T03:38:57;10.10;99.90
30097;DHT22;16915;51.466;3.610;2023-03-14T03:41:22;10.10;99.90
30097;DHT22;16915;51.466;3.610;2023-03-14T03:43:48;10.10;99.90
30097;DHT22;16915;51.466;3.610;2023-03-14T03:46:14;10.10;99.90
30097;DHT22;16915;51.466;3.610;2023-03-14T03:56:25;9.90;99.90
30097;DHT22;16915;51.466;3.610;2023-03-14T03:58:51;9.90;99.90
30097;DHT22;16915;51.466;3.610;2023-03-14T04:01:17;9.90;99.90
30097;DHT22;16915;51.466;3.610;2023-03-14T04:03:42;9.90;99.90
30097;DHT22;16915;51.466;3.610;2023-03-14T04:06:10;9.90;99.90
30097;DHT22;16915;51.466;3.610;2023-03-14T04:08:36;9.90;99.90
30097;DHT22;16915;51.466;3.610;2023-03-14T04:11:03;9.90;99.90
30097;DHT22;16915;51.466;3.610;2023-03-14T04:13:29;9.90;99.90
30097;DHT22;16915;51.466;3.610;2023-03-14T04:15:55;9.90;99.90
30097;DHT22;16915;51.466;3.610;2023-03-14T04:18:22;9.90;99.90
30097;DHT22;16915;51.466;3.610;2023-03-14T04:20:54;9.90;99.90
30097;DHT22;16915;51.466;3.610;2023-03-14T04:23:20;9.90;99.90
30097;DHT22;16915;51.466;3.610;2023-03-14T04:25:47;9.90;99.90
30097;DHT22;16915;51.466;3.610;2023-03-14T04:28:12;9.90;99.90
30097;DHT22;16915;51.466;3.610;2023-03-14T04:30:38;9.80;99.90
30097;DHT22;16915;51.466;3.610;2023-03-14T04:33:03;9.80;99.90
30097;DHT22;16915;51.466;3.610;2023-03-14T04:35:31;9.80;99.90
30097;DHT22;16915;51.466;3.610;2023-03-14T04:37:56;9.70;99.90
30097;DHT22;16915;51.466;3.610;2023-03-14T04:40:22;9.60;99.90
30097;DHT22;16915;51.466;3.610;2023-03-14T04:42:47;9.60;99.90
30097;DHT22;16915;51.466;3.610;2023-03-14T04:45:13;9.50;99.90
30097;DHT22;16915;51.466;3.610;2023-03-14T04:47:39;9.50;99.90
30097;DHT22;16915;51.466;3.610;2023-03-14T04:50:05;9.40;99.90
30097;DHT22;16915;51.466;3.610;2023-03-14T04:52:30;9.40;99.90
30097;DHT22;16915;51.466;3.610;2023-03-14T04:54:56;9.40;99.90
30097;DHT22;16915;51.466;3.610;2023-03-14T04:57:21;9.30;99.90
30097;DHT22;16915;51.466;3.610;2023-03-14T04:59:47;9.30;99.90
30097;DHT22;16915;51.466;3.610;2023-03-14T05:02:13;9.30;99.90
30097;DHT22;16915;51.466;3.610;2023-03-14T05:04:38;9.30;99.90
30097;DHT22;16915;51.466;3.610;2023-03-14T05:07:04;9.30;99.90
30097;DHT22;16915;51.466;3.610;2023-03-14T05:09:29;9.30;99.90
30097;DHT22;16915;51.466;3.610;2023-03-14T05:11:55;9.30;99.90
30097;DHT22;16915;51.466;3.610;2023-03-14T05:14:20;9.10;99.90
30097;DHT22;16915;51.466;3.610;2023-03-14T05:16:46;8.80;99.90
30097;DHT22;16915;51.466;3.610;2023-03-14T05:19:11;8.50;99.90
30097;DHT22;16915;51.466;3.610;2023-03-14T05:21:37;8.40;99.90
30097;DHT22;16915;51.466;3.610;2023-03-14T05:24:03;8.20;99.90
30097;DHT22;16915;51.466;3.610;2023-03-14T05:26:29;8.00;99.90
30097;DHT22;16915;51.466;3.610;2023-03-14T05:28:54;7.80;99.90
30097;DHT22;16915;51.466;3.610;2023-03-14T05:31:20;7.70;99.90
30097;DHT22;16915;51.466;3.610;2023-03-14T05:33:46;7.60;99.90
30097;DHT22;16915;51.466;3.610;2023-03-14T05:36:11;7.50;99.90
30097;DHT22;16915;51.466;3.610;2023-03-14T05:38:37;7.40;99.90
30097;DHT22;16915;51.466;3.610;2023-03-14T05:41:02;7.30;99.90
30097;DHT22;16915;51.466;3.610;2023-03-14T05:43:28;7.30;99.90
30097;DHT22;16915;51.466;3.610;2023-03-14T05:45:53;7.20;99.90
30097;DHT22;16915;51.466;3.610;2023-03-14T05:48:19;7.10;99.90
30097;DHT22;16915;51.466;3.610;2023-03-14T05:50:47;7.10;99.90
30097;DHT22;16915;51.466;3.610;2023-03-14T05:53:13;7.10;99.90
30097;DHT22;16915;51.466;3.610;2023-03-14T05:55:39;7.10;99.90
30097;DHT22;16915;51.466;3.610;2023-03-14T05:58:05;7.00;99.90
30097;DHT22;16915;51.466;3.610;2023-03-14T06:00:30;7.00;99.90
30097;DHT22;16915;51.466;3.610;2023-03-14T06:02:56;7.00;99.90
30097;DHT22;16915;51.466;3.610;2023-03-14T06:05:21;7.00;99.90
30097;DHT22;16915;51.466;3.610;2023-03-14T06:07:47;7.00;99.90
30097;DHT22;16915;51.466;3.610;2023-03-14T06:10:13;7.00;99.90
30097;DHT22;16915;51.466;3.610;2023-03-14T06:12:38;6.90;99.90
30097;DHT22;16915;51.466;3.610;2023-03-14T06:15:04;6.90;99.90
30097;DHT22;16915;51.466;3.610;2023-03-14T06:17:30;6.90;99.90
30097;DHT22;16915;51.466;3.610;2023-03-14T06:19:55;6.90;99.90
30097;DHT22;16915;51.466;3.610;2023-03-14T06:22:21;6.80;99.90
30097;DHT22;16915;51.466;3.610;2023-03-14T06:24:46;6.90;99.90
30097;DHT22;16915;51.466;3.610;2023-03-14T06:27:12;6.80;99.90
30097;DHT22;16915;51.466;3.610;2023-03-14T06:29:38;6.80;99.90
30097;DHT22;16915;51.466;3.610;2023-03-14T06:32:03;6.80;99.90
30097;DHT22;16915;51.466;3.610;2023-03-14T06:34:30;6.80;99.90
30097;DHT22;16915;51.466;3.610;2023-03-14T06:36:55;6.80;99.90
30097;DHT22;16915;51.466;3.610;2023-03-14T06:39:21;6.80;99.90
30097;DHT22;16915;51.466;3.610;2023-03-14T06:41:47;6.80;99.90
30097;DHT22;16915;51.466;3.610;2023-03-14T06:44:12;6.80;99.90
30097;DHT22;16915;51.466;3.610;2023-03-14T06:46:38;6.90;99.90
30097;DHT22;16915;51.466;3.610;2023-03-14T06:49:03;6.90;99.90
30097;DHT22;16915;51.466;3.610;2023-03-14T06:51:29;6.90;99.90
30097;DHT22;16915;51.466;3.610;2023-03-14T06:53:54;6.90;99.90
30097;DHT22;16915;51.466;3.610;2023-03-14T06:56:20;6.90;99.90
30097;DHT22;16915;51.466;3.610;2023-03-14T06:58:45;6.90;99.90
30097;DHT22;16915;51.466;3.610;2023-03-14T07:01:21;7.00;99.90
30097;DHT22;16915;51.466;3.610;2023-03-14T07:03:48;7.00;99.90
30097;DHT22;16915;51.466;3.610;2023-03-14T07:06:13;7.00;99.90
30097;DHT22;16915;51.466;3.610;2023-03-14T07:08:39;7.00;99.90
30097;DHT22;16915;51.466;3.610;2023-03-14T07:11:05;7.00;99.90
30097;DHT22;16915;51.466;3.610;2023-03-14T07:13:30;7.00;99.90
30097;DHT22;16915;51.466;3.610;2023-03-14T07:15:56;7.00;99.90
30097;DHT22;16915;51.466;3.610;2023-03-14T07:18:21;7.00;99.90
30097;DHT22;16915;51.466;3.610;2023-03-14T07:20:47;7.00;99.90
30097;DHT22;16915;51.466;3.610;2023-03-14T07:23:12;7.00;99.90
30097;DHT22;16915;51.466;3.610;2023-03-14T07:25:38;7.00;99.90
30097;DHT22;16915;51.466;3.610;2023-03-14T07:28:04;7.10;99.90
30097;DHT22;16915;51.466;3.610;2023-03-14T07:30:29;7.10;99.90
30097;DHT22;16915;51.466;3.610;2023-03-14T07:32:55;7.20;99.90
30097;DHT22;16915;51.466;3.610;2023-03-14T07:35:20;7.20;99.90
30097;DHT22;16915;51.466;3.610;2023-03-14T07:37:46;7.20;99.90
30097;DHT22;16915;51.466;3.610;2023-03-14T07:40:12;7.20;99.90
30097;DHT22;16915;51.466;3.610;2023-03-14T07:42:41;7.30;99.90
30097;DHT22;16915;51.466;3.610;2023-03-14T07:45:08;7.30;99.90
30097;DHT22;16915;51.466;3.610;2023-03-14T07:47:33;7.30;99.90
30097;DHT22;16915;51.466;3.610;2023-03-14T07:49:59;7.30;99.90
30097;DHT22;16915;51.466;3.610;2023-03-14T07:52:25;7.30;99.90
30097;DHT22;16915;51.466;3.610;2023-03-14T07:54:50;7.30;99.90
30097;DHT22;16915;51.466;3.610;2023-03-14T07:57:16;7.30;99.90
30097;DHT22;16915;51.466;3.610;2023-03-14T07:59:42;7.20;99.90
30097;DHT22;16915;51.466;3.610;2023-03-14T08:02:10;7.20;99.90
30097;DHT22;16915;51.466;3.610;2023-03-14T08:04:37;7.20;99.90
30097;DHT22;16915;51.466;3.610;2023-03-14T08:07:03;7.20;99.90
30097;DHT22;16915;51.466;3.610;2023-03-14T08:09:28;7.10;99.90
30097;DHT22;16915;51.466;3.610;2023-03-14T08:11:54;7.10;99.90
30097;DHT22;16915;51.466;3.610;2023-03-14T08:14:20;7.00;99.90
30097;DHT22;16915;51.466;3.610;2023-03-14T08:16:49;6.90;99.90
30097;DHT22;16915;51.466;3.610;2023-03-14T08:19:15;6.90;99.90
30097;DHT22;16915;51.466;3.610;2023-03-14T08:21:41;6.90;99.90
30097;DHT22;16915;51.466;3.610;2023-03-14T08:24:07;6.90;99.90
30097;DHT22;16915;51.466;3.610;2023-03-14T08:26:32;6.90;99.90
30097;DHT22;16915;51.466;3.610;2023-03-14T08:28:58;6.80;99.90
30097;DHT22;16915;51.466;3.610;2023-03-14T08:31:23;6.80;99.90
30097;DHT22;16915;51.466;3.610;2023-03-14T08:33:49;6.80;99.90
30097;DHT22;16915;51.466;3.610;2023-03-14T08:36:17;6.70;99.90
30097;DHT22;16915;51.466;3.610;2023-03-14T08:38:43;6.70;99.90
30097;DHT22;16915;51.466;3.610;2023-03-14T08:41:09;6.70;99.90
30097;DHT22;16915;51.466;3.610;2023-03-14T08:43:35;6.70;99.90
30097;DHT22;16915;51.466;3.610;2023-03-14T08:46:01;6.80;99.90
30097;DHT22;16915;51.466;3.610;2023-03-14T08:48:27;6.80;99.90
30097;DHT22;16915;51.466;3.610;2023-03-14T08:50:55;6.90;99.90
30097;DHT22;16915;51.466;3.610;2023-03-14T08:53:20;7.00;99.90
30097;DHT22;16915;51.466;3.610;2023-03-14T08:55:51;7.00;99.90
30097;DHT22;16915;51.466;3.610;2023-03-14T08:58:17;7.10;99.90
30097;DHT22;16915;51.466;3.610;2023-03-14T09:00:42;7.10;99.90
30097;DHT22;16915;51.466;3.610;2023-03-14T09:03:08;7.10;99.90
30097;DHT22;16915;51.466;3.610;2023-03-14T09:05:34;7.20;99.90
30097;DHT22;16915;51.466;3.610;2023-03-14T09:08:00;7.40;99.90
30097;DHT22;16915;51.466;3.610;2023-03-14T09:10:26;7.60;99.90
30097;DHT22;16915;51.466;3.610;2023-03-14T09:12:51;7.60;99.90
30097;DHT22;16915;51.466;3.610;2023-03-14T09:15:17;7.60;99.90
30097;DHT22;16915;51.466;3.610;2023-03-14T09:17:43;7.60;99.90
30097;DHT22;16915;51.466;3.610;2023-03-14T09:20:10;7.60;99.90
30097;DHT22;16915;51.466;3.610;2023-03-14T09:22:36;7.70;99.90
30097;DHT22;16915;51.466;3.610;2023-03-14T09:25:03;7.70;99.90
30097;DHT22;16915;51.466;3.610;2023-03-14T09:27:29;7.70;99.90
30097;DHT22;16915;51.466;3.610;2023-03-14T09:29:54;7.70;99.90
30097;DHT22;16915;51.466;3.610;2023-03-14T09:32:20;7.50;99.90
30097;DHT22;16915;51.466;3.610;2023-03-14T09:34:45;7.50;99.90
30097;DHT22;16915;51.466;3.610;2023-03-14T09:37:11;7.40;99.90
30097;DHT22;16915;51.466;3.610;2023-03-14T09:39:36;7.40;99.90
30097;DHT22;16915;51.466;3.610;2023-03-14T09:42:05;7.50;99.90
30097;DHT22;16915;51.466;3.610;2023-03-14T09:44:34;7.70;99.90
30097;DHT22;16915;51.466;3.610;2023-03-14T09:47:10;8.00;99.90
30097;DHT22;16915;51.466;3.610;2023-03-14T09:49:39;8.10;99.90
30097;DHT22;16915;51.466;3.610;2023-03-14T09:52:13;8.20;99.90
30097;DHT22;16915;51.466;3.610;2023-03-14T09:54:52;8.30;99.90
30097;DHT22;16915;51.466;3.610;2023-03-14T09:57:19;8.30;99.90
30097;DHT22;16915;51.466;3.610;2023-03-14T09:59:46;8.20;99.90
30097;DHT22;16915;51.466;3.610;2023-03-14T10:02:21;8.20;99.90
30097;DHT22;16915;51.466;3.610;2023-03-14T10:04:48;8.10;99.90
30097;DHT22;16915;51.466;3.610;2023-03-14T10:07:16;8.00;99.90
30097;DHT22;16915;51.466;3.610;2023-03-14T10:09:46;7.90;99.90
30097;DHT22;16915;51.466;3.610;2023-03-14T10:12:12;8.00;99.90
30097;DHT22;16915;51.466;3.610;2023-03-14T10:14:51;8.40;99.90
30097;DHT22;16915;51.466;3.610;2023-03-14T10:17:19;8.60;99.90
30097;DHT22;16915;51.466;3.610;2023-03-14T10:19:58;8.80;99.90
30097;DHT22;16915;51.466;3.610;2023-03-14T10:22:28;8.90;99.90
30097;DHT22;16915;51.466;3.610;2023-03-14T10:24:57;8.90;99.90
30097;DHT22;16915;51.466;3.610;2023-03-14T10:27:31;8.60;99.90
30097;DHT22;16915;51.466;3.610;2023-03-14T10:29:59;8.40;99.90
30097;DHT22;16915;51.466;3.610;2023-03-14T10:32:34;8.40;99.90
30097;DHT22;16915;51.466;3.610;2023-03-14T10:37:59;8.60;99.90
30097;DHT22;16915;51.466;3.610;2023-03-14T10:40:32;8.50;99.90
30097;DHT22;16915;51.466;3.610;2023-03-14T10:42:58;8.50;99.90
30097;DHT22;16915;51.466;3.610;2023-03-14T10:45:32;8.40;99.90
30097;DHT22;16915;51.466;3.610;2023-03-14T10:48:21;8.40;99.90
30097;DHT22;16915;51.466;3.610;2023-03-14T10:51:07;8.30;99.90
30097;DHT22;16915;51.466;3.610;2023-03-14T10:54:14;8.20;99.90
30097;DHT22;16915;51.466;3.610;2023-03-14T10:56:44;8.20;99.90
30097;DHT22;16915;51.466;3.610;2023-03-14T10:59:15;8.10;99.90
30097;DHT22;16915;51.466;3.610;2023-03-14T11:02:00;8.00;99.90
30097;DHT22;16915;51.466;3.610;2023-03-14T11:15:18;8.20;99.90
30097;DHT22;16915;51.466;3.610;2023-03-14T11:18:04;8.30;99.90
30097;DHT22;16915;51.466;3.610;2023-03-14T11:28:34;9.00;99.90
30097;DHT22;16915;51.466;3.610;2023-03-14T11:31:11;9.10;99.90
30097;DHT22;16915;51.466;3.610;2023-03-14T11:37:04;9.00;99.90
30097;DHT22;16915;51.466;3.610;2023-03-14T11:39:39;8.90;99.90
30097;DHT22;16915;51.466;3.610;2023-03-14T11:42:11;8.90;99.90
30097;DHT22;16915;51.466;3.610;2023-03-14T11:44:39;8.80;99.90
30097;DHT22;16915;51.466;3.610;2023-03-14T11:47:19;9.00;99.90
30097;DHT22;16915;51.466;3.610;2023-03-14T11:50:21;9.30;99.90
30097;DHT22;16915;51.466;3.610;2023-03-14T11:52:56;9.70;99.90
30097;DHT22;16915;51.466;3.610;2023-03-14T11:55:37;9.90;99.90
30097;DHT22;16915;51.466;3.610;2023-03-14T11:58:50;9.90;99.90
30097;DHT22;16915;51.466;3.610;2023-03-14T12:01:10;9.80;99.90
30097;DHT22;16915;51.466;3.610;2023-03-14T12:03:52;9.60;99.90
30097;DHT22;16915;51.466;3.610;2023-03-14T12:06:35;9.20;99.90
30097;DHT22;16915;51.466;3.610;2023-03-14T12:09:04;9.00;99.90
30097;DHT22;16915;51.466;3.610;2023-03-14T12:11:36;9.20;99.90
30097;DHT22;16915;51.466;3.610;2023-03-14T12:14:18;9.50;99.90
30097;DHT22;16915;51.466;3.610;2023-03-14T12:16:46;9.80;99.90
30097;DHT22;16915;51.466;3.610;2023-03-14T12:21:58;10.00;99.90
30097;DHT22;16915;51.466;3.610;2023-03-14T12:24:30;9.80;99.90
30097;DHT22;16915;51.466;3.610;2023-03-14T12:26:58;9.60;99.90
30097;DHT22;16915;51.466;3.610;2023-03-14T12:29:24;9.40;99.90
30097;DHT22;16915;51.466;3.610;2023-03-14T12:32:21;9.40;99.90
30097;DHT22;16915;51.466;3.610;2023-03-14T12:34:47;9.60;99.90
30097;DHT22;16915;51.466;3.610;2023-03-14T12:37:20;9.90;99.90
30097;DHT22;16915;51.466;3.610;2023-03-14T12:40:17;10.20;99.90
30097;DHT22;16915;51.466;3.610;2023-03-14T12:43:00;10.40;99.90
30097;DHT22;16915;51.466;3.610;2023-03-14T12:45:31;10.50;99.90
30097;DHT22;16915;51.466;3.610;2023-03-14T12:48:02;10.80;99.90
30097;DHT22;16915;51.466;3.610;2023-03-14T12:50:55;10.90;99.90
30097;DHT22;16915;51.466;3.610;2023-03-14T12:53:40;10.60;99.90
30097;DHT22;16915;51.466;3.610;2023-03-14T13:04:46;9.00;99.90
30097;DHT22;16915;51.466;3.610;2023-03-14T13:13:04;8.40;99.90
30097;DHT22;16915;51.466;3.610;2023-03-14T13:15:43;8.40;99.90
30097;DHT22;16915;51.466;3.610;2023-03-14T13:18:27;8.40;99.90
30097;DHT22;16915;51.466;3.610;2023-03-14T13:20:58;8.40;99.90
30097;DHT22;16915;51.466;3.610;2023-03-14T13:23:26;8.50;99.90
30097;DHT22;16915;51.466;3.610;2023-03-14T13:25:52;8.60;99.90
30097;DHT22;16915;51.466;3.610;2023-03-14T13:28:18;8.70;99.90
30097;DHT22;16915;51.466;3.610;2023-03-14T13:30:49;8.80;99.90
30097;DHT22;16915;51.466;3.610;2023-03-14T13:33:22;8.80;99.90
30097;DHT22;16915;51.466;3.610;2023-03-14T13:35:58;8.80;99.90
30097;DHT22;16915;51.466;3.610;2023-03-14T13:38:29;8.80;99.90
30097;DHT22;16915;51.466;3.610;2023-03-14T13:40:57;8.70;99.90
30097;DHT22;16915;51.466;3.610;2023-03-14T13:43:36;8.60;99.90
30097;DHT22;16915;51.466;3.610;2023-03-14T13:48:29;8.30;99.90
30097;DHT22;16915;51.466;3.610;2023-03-14T13:51:21;8.20;99.90
30097;DHT22;16915;51.466;3.610;2023-03-14T13:56:14;8.10;99.90
30097;DHT22;16915;51.466;3.610;2023-03-14T13:58:41;8.10;99.90
30097;DHT22;16915;51.466;3.610;2023-03-14T14:01:27;8.10;99.90
30097;DHT22;16915;51.466;3.610;2023-03-14T14:03:56;8.10;99.90
30097;DHT22;16915;51.466;3.610;2023-03-14T14:06:37;8.10;99.90
30097;DHT22;16915;51.466;3.610;2023-03-14T14:09:15;8.00;99.90
30097;DHT22;16915;51.466;3.610;2023-03-14T14:11:47;8.00;99.90
30097;DHT22;16915;51.466;3.610;2023-03-14T14:14:19;8.00;99.90
30097;DHT22;16915;51.466;3.610;2023-03-14T14:16:47;8.00;99.90
30097;DHT22;16915;51.466;3.610;2023-03-14T14:19:14;8.00;99.90
30097;DHT22;16915;51.466;3.610;2023-03-14T14:21:40;8.10;99.90
30097;DHT22;16915;51.466;3.610;2023-03-14T14:24:17;8.00;99.90
30097;DHT22;16915;51.466;3.610;2023-03-14T14:26:54;8.20;99.90
30097;DHT22;16915;51.466;3.610;2023-03-14T14:29:28;8.20;99.90
30097;DHT22;16915;51.466;3.610;2023-03-14T14:32:03;8.20;99.90
30097;DHT22;16915;51.466;3.610;2023-03-14T14:34:29;8.20;99.90
30097;DHT22;16915;51.466;3.610;2023-03-14T14:36:55;8.30;99.90
30097;DHT22;16915;51.466;3.610;2023-03-14T14:39:26;8.30;99.90
30097;DHT22;16915;51.466;3.610;2023-03-14T14:41:54;8.20;99.90
30097;DHT22;16915;51.466;3.610;2023-03-14T14:44:36;8.20;99.90
30097;DHT22;16915;51.466;3.610;2023-03-14T14:47:05;8.10;99.90
30097;DHT22;16915;51.466;3.610;2023-03-14T14:49:32;8.00;99.90
30097;DHT22;16915;51.466;3.610;2023-03-14T14:54:43;7.90;99.90
30097;DHT22;16915;51.466;3.610;2023-03-14T14:57:51;8.00;99.90
30097;DHT22;16915;51.466;3.610;2023-03-14T15:00:19;8.00;99.90
30097;DHT22;16915;51.466;3.610;2023-03-14T15:02:47;8.00;99.90
30097;DHT22;16915;51.466;3.610;2023-03-14T15:05:18;8.10;99.90
30097;DHT22;16915;51.466;3.610;2023-03-14T15:07:44;8.10;99.90
30097;DHT22;16915;51.466;3.610;2023-03-14T15:10:16;8.10;99.90
30097;DHT22;16915;51.466;3.610;2023-03-14T15:12:42;8.20;99.90
30097;DHT22;16915;51.466;3.610;2023-03-14T15:15:09;8.20;99.90
30097;DHT22;16915;51.466;3.610;2023-03-14T15:17:35;8.40;99.90
30097;DHT22;16915;51.466;3.610;2023-03-14T15:20:02;8.50;99.90
30097;DHT22;16915;51.466;3.610;2023-03-14T15:22:29;8.50;99.90
30097;DHT22;16915;51.466;3.610;2023-03-14T15:24:55;8.60;99.90
30097;DHT22;16915;51.466;3.610;2023-03-14T15:27:20;8.70;99.90
30097;DHT22;16915;51.466;3.610;2023-03-14T15:29:46;8.80;99.90
30097;DHT22;16915;51.466;3.610;2023-03-14T15:32:13;8.70;99.90
30097;DHT22;16915;51.466;3.610;2023-03-14T15:34:39;8.70;99.90
30097;DHT22;16915;51.466;3.610;2023-03-14T15:37:08;8.70;99.90
30097;DHT22;16915;51.466;3.610;2023-03-14T15:39:34;8.60;99.90
30097;DHT22;16915;51.466;3.610;2023-03-14T15:42:00;8.60;99.90
30097;DHT22;16915;51.466;3.610;2023-03-14T15:44:26;8.50;99.90
30097;DHT22;16915;51.466;3.610;2023-03-14T15:46:51;8.50;99.90
30097;DHT22;16915;51.466;3.610;2023-03-14T15:49:17;8.40;99.90
30097;DHT22;16915;51.466;3.610;2023-03-14T15:51:42;8.40;99.90
30097;DHT22;16915;51.466;3.610;2023-03-14T15:54:08;8.50;99.90
30097;DHT22;16915;51.466;3.610;2023-03-14T15:56:33;8.50;99.90
30097;DHT22;16915;51.466;3.610;2023-03-14T15:58:59;8.50;99.90
30097;DHT22;16915;51.466;3.610;2023-03-14T16:01:25;8.40;99.90
30097;DHT22;16915;51.466;3.610;2023-03-14T16:03:50;8.40;99.90
30097;DHT22;16915;51.466;3.610;2023-03-14T16:06:18;8.30;99.90
30097;DHT22;16915;51.466;3.610;2023-03-14T16:08:44;8.30;99.90
30097;DHT22;16915;51.466;3.610;2023-03-14T16:11:12;8.20;99.90
30097;DHT22;16915;51.466;3.610;2023-03-14T16:13:38;8.10;99.90
30097;DHT22;16915;51.466;3.610;2023-03-14T16:16:05;8.10;99.90
30097;DHT22;16915;51.466;3.610;2023-03-14T16:18:33;8.10;99.90
30097;DHT22;16915;51.466;3.610;2023-03-14T16:21:01;8.00;99.90
30097;DHT22;16915;51.466;3.610;2023-03-14T16:23:28;8.00;99.90
30097;DHT22;16915;51.466;3.610;2023-03-14T16:25:54;7.90;99.90
30097;DHT22;16915;51.466;3.610;2023-03-14T16:28:20;7.90;99.90
30097;DHT22;16915;51.466;3.610;2023-03-14T16:30:46;7.90;99.90
30097;DHT22;16915;51.466;3.610;2023-03-14T16:33:12;7.90;99.90
30097;DHT22;16915;51.466;3.610;2023-03-14T16:35:39;7.90;99.90
30097;DHT22;16915;51.466;3.610;2023-03-14T16:38:05;7.90;99.90
30097;DHT22;16915;51.466;3.610;2023-03-14T16:40:31;8.00;99.90
30097;DHT22;16915;51.466;3.610;2023-03-14T16:42:57;8.00;99.90
30097;DHT22;16915;51.466;3.610;2023-03-14T16:45:22;8.00;99.90
30097;DHT22;16915;51.466;3.610;2023-03-14T16:47:48;8.00;99.90
30097;DHT22;16915;51.466;3.610;2023-03-14T16:50:14;7.90;99.90
30097;DHT22;16915;51.466;3.610;2023-03-14T16:52:39;7.70;99.90
30097;DHT22;16915;51.466;3.610;2023-03-14T16:55:05;7.60;99.90
30097;DHT22;16915;51.466;3.610;2023-03-14T16:57:32;7.40;99.90
30097;DHT22;16915;51.466;3.610;2023-03-14T16:59:58;7.10;99.90